sensor_id;sensor_type;location;lat;lon;timestamp;pressure;altitude;pressure_sealevel;temperature;humidity
59391;BME280;53405;57.012;40.984;2022-08-05T00:02:31;100771.00;;;20.17;71.08
59391;BME280;53405;57.012;40.984;2022-08-05T00:05:17;100778.22;;;20.17;71.26
59391;BME280;53405;57.012;40.984;2022-08-05T00:08:03;100781.28;;;20.20;71.65
59391;BME280;53405;57.012;40.984;2022-08-05T00:10:49;100784.25;;;20.12;71.62
59391;BME280;53405;57.012;40.984;2022-08-05T00:13:37;100779.47;;;20.14;71.79
59391;BME280;53405;57.012;40.984;2022-08-05T00:16:25;100782.66;;;20.04;72.11
59391;BME280;53405;57.012;40.984;2022-08-05T00:19:11;100789.72;;;19.99;71.93
59391;BME280;53405;57.012;40.984;2022-08-05T00:21:54;100780.72;;;19.93;71.97
59391;BME280;53405;57.012;40.984;2022-08-05T00:24:24;100771.50;;;19.89;72.29
59391;BME280;53405;57.012;40.984;2022-08-05T00:27:10;100786.53;;;19.90;72.29
59391;BME280;53405;57.012;40.984;2022-08-05T00:29:56;100786.97;;;19.87;72.58
59391;BME280;53405;57.012;40.984;2022-08-05T00:32:42;100770.19;;;19.73;72.73
59391;BME280;53405;57.012;40.984;2022-08-05T00:35:28;100779.63;;;19.76;73.07
59391;BME280;53405;57.012;40.984;2022-08-05T00:38:15;100790.28;;;19.82;72.82
59391;BME280;53405;57.012;40.984;2022-08-05T00:41:01;100786.41;;;19.78;72.54
59391;BME280;53405;57.012;40.984;2022-08-05T00:43:40;100785.19;;;19.74;73.15
59391;BME280;53405;57.012;40.984;2022-08-05T00:46:26;100781.31;;;19.70;73.33
59391;BME280;53405;57.012;40.984;2022-08-05T00:49:12;100770.69;;;19.63;73.36
59391;BME280;53405;57.012;40.984;2022-08-05T00:51:59;100775.97;;;19.70;73.20
59391;BME280;53405;57.012;40.984;2022-08-05T00:54:26;100774.13;;;19.71;73.55
59391;BME280;53405;57.012;40.984;2022-08-05T00:56:54;100774.75;;;19.66;73.44
59391;BME280;53405;57.012;40.984;2022-08-05T00:59:40;100773.97;;;19.65;73.36
59391;BME280;53405;57.012;40.984;2022-08-05T01:02:26;100770.69;;;19.63;73.76
59391;BME280;53405;57.012;40.984;2022-08-05T01:04:53;100778.50;;;19.65;73.46
59391;BME280;53405;57.012;40.984;2022-08-05T01:07:39;100768.91;;;19.57;73.86
59391;BME280;53405;57.012;40.984;2022-08-05T01:10:53;100771.94;;;19.61;73.67
59391;BME280;53405;57.012;40.984;2022-08-05T01:13:46;100774.81;;;19.59;74.08
59391;BME280;53405;57.012;40.984;2022-08-05T01:16:39;100772.81;;;19.55;73.78
59391;BME280;53405;57.012;40.984;2022-08-05T01:19:35;100780.59;;;19.56;74.36
59391;BME280;53405;57.012;40.984;2022-08-05T01:22:54;100773.88;;;19.54;74.13
59391;BME280;53405;57.012;40.984;2022-08-05T01:28:56;100771.84;;;19.49;74.06
59391;BME280;53405;57.012;40.984;2022-08-05T01:31:47;100771.41;;;19.52;74.05
59391;BME280;53405;57.012;40.984;2022-08-05T01:34:42;100782.69;;;19.54;74.23
59391;BME280;53405;57.012;40.984;2022-08-05T01:40:30;100783.06;;;19.58;74.41
59391;BME280;53405;57.012;40.984;2022-08-05T01:43:17;100778.16;;;19.55;74.33
59391;BME280;53405;57.012;40.984;2022-08-05T01:46:04;100788.47;;;19.51;74.58
59391;BME280;53405;57.012;40.984;2022-08-05T01:48:51;100767.16;;;19.44;74.80
59391;BME280;53405;57.012;40.984;2022-08-05T01:51:40;100787.44;;;19.52;74.77
59391;BME280;53405;57.012;40.984;2022-08-05T01:54:31;100783.69;;;19.60;74.29
59391;BME280;53405;57.012;40.984;2022-08-05T01:57:30;100797.34;;;19.70;74.10
59391;BME280;53405;57.012;40.984;2022-08-05T02:00:17;100784.97;;;19.50;74.29
59391;BME280;53405;57.012;40.984;2022-08-05T02:03:32;100787.88;;;19.49;75.07
59391;BME280;53405;57.012;40.984;2022-08-05T02:06:18;100787.81;;;19.56;74.68
59391;BME280;53405;57.012;40.984;2022-08-05T02:09:05;100799.25;;;19.63;74.65
59391;BME280;53405;57.012;40.984;2022-08-05T02:14:51;100794.03;;;19.75;74.22
59391;BME280;53405;57.012;40.984;2022-08-05T02:17:34;100803.06;;;19.80;73.78
59391;BME280;53405;57.012;40.984;2022-08-05T02:20:06;100800.53;;;19.85;73.83
59391;BME280;53405;57.012;40.984;2022-08-05T02:22:40;100805.22;;;19.90;73.50
59391;BME280;53405;57.012;40.984;2022-08-05T02:25:17;100809.69;;;19.96;73.34
59391;BME280;53405;57.012;40.984;2022-08-05T02:27:47;100812.97;;;19.98;73.17
59391;BME280;53405;57.012;40.984;2022-08-05T02:30:18;100790.81;;;19.91;73.11
59391;BME280;53405;57.012;40.984;2022-08-05T02:33:06;100798.56;;;20.18;72.25
59391;BME280;53405;57.012;40.984;2022-08-05T02:35:55;100810.13;;;20.12;72.67
59391;BME280;53405;57.012;40.984;2022-08-05T02:38:48;100815.66;;;20.17;72.54
59391;BME280;53405;57.012;40.984;2022-08-05T02:41:35;100818.91;;;20.19;72.52
59391;BME280;53405;57.012;40.984;2022-08-05T02:44:23;100811.25;;;20.22;72.49
59391;BME280;53405;57.012;40.984;2022-08-05T02:47:11;100784.69;;;20.09;72.57
59391;BME280;53405;57.012;40.984;2022-08-05T02:49:59;100807.19;;;20.20;72.87
59391;BME280;53405;57.012;40.984;2022-08-05T02:52:47;100815.44;;;20.18;73.18
59391;BME280;53405;57.012;40.984;2022-08-05T02:55:33;100815.66;;;20.17;73.23
59391;BME280;53405;57.012;40.984;2022-08-05T02:58:21;100803.41;;;20.09;73.18
59391;BME280;53405;57.012;40.984;2022-08-05T03:01:18;100814.59;;;20.18;72.95
59391;BME280;53405;57.012;40.984;2022-08-05T03:04:07;100816.69;;;20.16;72.84
59391;BME280;53405;57.012;40.984;2022-08-05T03:06:53;100819.94;;;20.18;72.98
59391;BME280;53405;57.012;40.984;2022-08-05T03:09:42;100793.81;;;20.01;73.08
59391;BME280;53405;57.012;40.984;2022-08-05T03:12:34;100814.91;;;20.10;73.30
59391;BME280;53405;57.012;40.984;2022-08-05T03:15:21;100821.00;;;20.17;73.35
59391;BME280;53405;57.012;40.984;2022-08-05T03:18:08;100814.47;;;20.13;73.27
59391;BME280;53405;57.012;40.984;2022-08-05T03:20:54;100822.03;;;20.16;73.29
59391;BME280;53405;57.012;40.984;2022-08-05T03:23:42;100819.81;;;20.13;73.58
59391;BME280;53405;57.012;40.984;2022-08-05T03:26:28;100825.91;;;20.20;73.62
59391;BME280;53405;57.012;40.984;2022-08-05T03:29:15;100815.47;;;20.12;73.46
59391;BME280;53405;57.012;40.984;2022-08-05T03:32:03;100803.69;;;20.19;73.60
59391;BME280;53405;57.012;40.984;2022-08-05T03:34:51;100825.31;;;20.36;73.37
59391;BME280;53405;57.012;40.984;2022-08-05T03:37:36;100827.69;;;20.45;73.17
59391;BME280;53405;57.012;40.984;2022-08-05T03:40:22;100825.31;;;20.55;73.17
59391;BME280;53405;57.012;40.984;2022-08-05T03:43:08;100823.16;;;20.64;73.12
59391;BME280;53405;57.012;40.984;2022-08-05T03:45:55;100823.94;;;20.71;72.71
59391;BME280;53405;57.012;40.984;2022-08-05T03:48:41;100833.06;;;20.82;72.86
59391;BME280;53405;57.012;40.984;2022-08-05T03:51:35;100826.50;;;20.96;72.62
59391;BME280;53405;57.012;40.984;2022-08-05T03:54:41;100821.72;;;20.98;72.45
59391;BME280;53405;57.012;40.984;2022-08-05T03:57:30;100811.16;;;21.03;71.85
59391;BME280;53405;57.012;40.984;2022-08-05T04:00:18;100819.13;;;21.22;71.51
59391;BME280;53405;57.012;40.984;2022-08-05T04:03:07;100838.84;;;21.39;71.17
59391;BME280;53405;57.012;40.984;2022-08-05T04:05:37;100837.28;;;21.50;70.91
59391;BME280;53405;57.012;40.984;2022-08-05T04:08:24;100840.44;;;21.59;70.86
59391;BME280;53405;57.012;40.984;2022-08-05T04:11:12;100837.78;;;21.71;70.53
59391;BME280;53405;57.012;40.984;2022-08-05T04:13:59;100844.44;;;21.80;70.01
59391;BME280;53405;57.012;40.984;2022-08-05T04:16:45;100835.00;;;21.89;69.84
59391;BME280;53405;57.012;40.984;2022-08-05T04:19:40;100840.00;;;21.97;69.30
59391;BME280;53405;57.012;40.984;2022-08-05T04:22:26;100840.03;;;22.09;69.30
59391;BME280;53405;57.012;40.984;2022-08-05T04:25:12;100842.91;;;22.19;68.83
59391;BME280;53405;57.012;40.984;2022-08-05T04:27:58;100839.56;;;22.36;68.05
59391;BME280;53405;57.012;40.984;2022-08-05T04:30:47;100848.28;;;22.55;67.65
59391;BME280;53405;57.012;40.984;2022-08-05T04:33:32;100836.69;;;22.66;66.94
59391;BME280;53405;57.012;40.984;2022-08-05T04:36:18;100839.91;;;22.80;66.92
59391;BME280;53405;57.012;40.984;2022-08-05T04:39:04;100834.97;;;22.89;66.85
59391;BME280;53405;57.012;40.984;2022-08-05T04:41:50;100846.16;;;22.98;66.57
59391;BME280;53405;57.012;40.984;2022-08-05T04:44:36;100847.41;;;23.07;66.15
59391;BME280;53405;57.012;40.984;2022-08-05T04:47:22;100854.63;;;23.18;65.90
59391;BME280;53405;57.012;40.984;2022-08-05T04:50:09;100838.91;;;23.27;65.57
59391;BME280;53405;57.012;40.984;2022-08-05T04:52:55;100843.59;;;23.49;64.84
59391;BME280;53405;57.012;40.984;2022-08-05T04:55:42;100840.59;;;23.62;64.95
59391;BME280;53405;57.012;40.984;2022-08-05T04:58:28;100840.31;;;23.80;64.48
59391;BME280;53405;57.012;40.984;2022-08-05T05:01:15;100835.94;;;23.91;63.88
59391;BME280;53405;57.012;40.984;2022-08-05T05:04:01;100833.72;;;24.05;63.78
59391;BME280;53405;57.012;40.984;2022-08-05T05:06:47;100842.34;;;24.24;63.32
59391;BME280;53405;57.012;40.984;2022-08-05T05:09:33;100842.53;;;24.40;62.83
59391;BME280;53405;57.012;40.984;2022-08-05T05:12:18;100840.56;;;24.52;62.55
59391;BME280;53405;57.012;40.984;2022-08-05T05:15:04;100843.06;;;24.59;61.32
59391;BME280;53405;57.012;40.984;2022-08-05T05:18:04;100840.81;;;24.73;61.30
59391;BME280;53405;57.012;40.984;2022-08-05T05:20:56;100849.59;;;24.85;60.62
59391;BME280;53405;57.012;40.984;2022-08-05T05:23:42;100850.47;;;24.96;60.59
59391;BME280;53405;57.012;40.984;2022-08-05T05:26:10;100849.72;;;25.00;60.64
59391;BME280;53405;57.012;40.984;2022-08-05T05:28:56;100821.09;;;24.94;60.91
59391;BME280;53405;57.012;40.984;2022-08-05T05:31:42;100852.84;;;25.14;60.13
59391;BME280;53405;57.012;40.984;2022-08-05T05:34:27;100854.00;;;25.23;60.06
59391;BME280;53405;57.012;40.984;2022-08-05T05:37:14;100845.13;;;25.23;59.93
59391;BME280;53405;57.012;40.984;2022-08-05T05:40:00;100859.31;;;25.40;60.10
59391;BME280;53405;57.012;40.984;2022-08-05T05:42:48;100848.03;;;25.43;58.62
59391;BME280;53405;57.012;40.984;2022-08-05T05:45:34;100850.78;;;25.54;58.97
59391;BME280;53405;57.012;40.984;2022-08-05T05:48:21;100851.44;;;25.66;58.90
59391;BME280;53405;57.012;40.984;2022-08-05T05:51:07;100845.00;;;25.72;58.33
59391;BME280;53405;57.012;40.984;2022-08-05T05:53:54;100839.59;;;25.67;58.64
59391;BME280;53405;57.012;40.984;2022-08-05T05:56:44;100848.84;;;25.82;58.07
59391;BME280;53405;57.012;40.984;2022-08-05T05:59:30;100845.41;;;25.91;58.07
59391;BME280;53405;57.012;40.984;2022-08-05T06:02:16;100842.00;;;26.01;57.26
59391;BME280;53405;57.012;40.984;2022-08-05T06:05:03;100851.00;;;26.17;57.04
59391;BME280;53405;57.012;40.984;2022-08-05T06:07:49;100851.84;;;26.28;56.57
59391;BME280;53405;57.012;40.984;2022-08-05T06:10:36;100847.88;;;26.41;55.47
59391;BME280;53405;57.012;40.984;2022-08-05T06:13:21;100851.13;;;26.43;55.18
59391;BME280;53405;57.012;40.984;2022-08-05T06:16:07;100857.91;;;26.50;54.40
59391;BME280;53405;57.012;40.984;2022-08-05T06:18:53;100840.34;;;26.48;53.86
59391;BME280;53405;57.012;40.984;2022-08-05T06:21:39;100860.44;;;26.67;52.77
59391;BME280;53405;57.012;40.984;2022-08-05T06:24:24;100859.88;;;26.65;53.40
59391;BME280;53405;57.012;40.984;2022-08-05T06:27:10;100858.22;;;26.64;53.66
59391;BME280;53405;57.012;40.984;2022-08-05T06:29:56;100856.88;;;26.57;53.73
59391;BME280;53405;57.012;40.984;2022-08-05T06:32:29;100859.56;;;26.57;52.97
59391;BME280;53405;57.012;40.984;2022-08-05T06:34:57;100854.16;;;26.57;53.33
59391;BME280;53405;57.012;40.984;2022-08-05T06:37:26;100854.72;;;26.64;52.69
59391;BME280;53405;57.012;40.984;2022-08-05T06:40:13;100855.59;;;26.75;52.33
59391;BME280;53405;57.012;40.984;2022-08-05T06:42:59;100851.56;;;26.82;51.74
59391;BME280;53405;57.012;40.984;2022-08-05T06:45:45;100854.03;;;26.89;51.45
59391;BME280;53405;57.012;40.984;2022-08-05T06:48:15;100856.19;;;26.97;51.99
59391;BME280;53405;57.012;40.984;2022-08-05T06:51:03;100857.56;;;27.05;52.09
59391;BME280;53405;57.012;40.984;2022-08-05T06:53:32;100862.69;;;27.07;51.65
59391;BME280;53405;57.012;40.984;2022-08-05T06:56:01;100863.53;;;27.12;51.52
59391;BME280;53405;57.012;40.984;2022-08-05T06:58:31;100856.50;;;27.16;51.18
59391;BME280;53405;57.012;40.984;2022-08-05T07:01:00;100860.03;;;27.22;50.34
59391;BME280;53405;57.012;40.984;2022-08-05T07:03:28;100863.56;;;27.28;50.04
59391;BME280;53405;57.012;40.984;2022-08-05T07:05:56;100859.25;;;27.37;49.72
59391;BME280;53405;57.012;40.984;2022-08-05T07:08:24;100865.75;;;27.46;48.96
59391;BME280;53405;57.012;40.984;2022-08-05T07:10:51;100864.69;;;27.42;49.86
59391;BME280;53405;57.012;40.984;2022-08-05T07:13:21;100855.78;;;27.47;49.67
59391;BME280;53405;57.012;40.984;2022-08-05T07:16:07;100856.56;;;27.57;48.75
59391;BME280;53405;57.012;40.984;2022-08-05T07:18:53;100860.34;;;27.72;48.89
59391;BME280;53405;57.012;40.984;2022-08-05T07:21:20;100855.44;;;27.84;48.27
59391;BME280;53405;57.012;40.984;2022-08-05T07:23:48;100857.34;;;27.94;46.26
59391;BME280;53405;57.012;40.984;2022-08-05T07:26:15;100849.22;;;28.04;45.91
59391;BME280;53405;57.012;40.984;2022-08-05T07:28:46;100830.53;;;28.08;46.29
59391;BME280;53405;57.012;40.984;2022-08-05T07:31:14;100855.44;;;28.15;45.94
59391;BME280;53405;57.012;40.984;2022-08-05T07:33:41;100843.50;;;28.21;45.07
59391;BME280;53405;57.012;40.984;2022-08-05T07:36:09;100851.59;;;28.26;45.09
59391;BME280;53405;57.012;40.984;2022-08-05T07:38:37;100853.22;;;28.33;45.08
59391;BME280;53405;57.012;40.984;2022-08-05T07:41:08;100831.28;;;28.34;44.08
59391;BME280;53405;57.012;40.984;2022-08-05T07:43:39;100845.25;;;28.57;44.65
59391;BME280;53405;57.012;40.984;2022-08-05T07:46:07;100844.78;;;28.44;45.52
59391;BME280;53405;57.012;40.984;2022-08-05T07:48:34;100847.53;;;28.29;46.18
59391;BME280;53405;57.012;40.984;2022-08-05T07:51:01;100851.94;;;28.15;46.60
59391;BME280;53405;57.012;40.984;2022-08-05T07:53:29;100841.91;;;28.05;46.99
59391;BME280;53405;57.012;40.984;2022-08-05T07:55:56;100846.28;;;27.96;47.23
59391;BME280;53405;57.012;40.984;2022-08-05T07:58:24;100842.75;;;27.85;47.67
59391;BME280;53405;57.012;40.984;2022-08-05T08:00:51;100846.53;;;27.84;47.87
59391;BME280;53405;57.012;40.984;2022-08-05T08:03:37;100846.53;;;27.79;48.70
59391;BME280;53405;57.012;40.984;2022-08-05T08:06:23;100844.38;;;27.81;48.52
59391;BME280;53405;57.012;40.984;2022-08-05T08:09:11;100828.66;;;27.83;47.79
59391;BME280;53405;57.012;40.984;2022-08-05T08:11:59;100830.06;;;27.96;48.47
59391;BME280;53405;57.012;40.984;2022-08-05T08:14:50;100839.19;;;28.05;48.32
59391;BME280;53405;57.012;40.984;2022-08-05T08:17:37;100833.25;;;28.13;47.10
59391;BME280;53405;57.012;40.984;2022-08-05T08:20:25;100831.56;;;28.33;46.42
59391;BME280;53405;57.012;40.984;2022-08-05T08:23:13;100837.44;;;28.50;46.31
59391;BME280;53405;57.012;40.984;2022-08-05T08:26:00;100832.00;;;28.60;45.95
59391;BME280;53405;57.012;40.984;2022-08-05T08:28:48;100843.03;;;28.79;45.87
59391;BME280;53405;57.012;40.984;2022-08-05T08:31:36;100844.34;;;28.87;45.32
59391;BME280;53405;57.012;40.984;2022-08-05T08:34:25;100836.19;;;29.32;43.67
59391;BME280;53405;57.012;40.984;2022-08-05T08:37:12;100840.16;;;29.74;42.99
59391;BME280;53405;57.012;40.984;2022-08-05T08:40:00;100839.81;;;29.51;42.94
59391;BME280;53405;57.012;40.984;2022-08-05T08:42:50;100857.28;;;29.99;42.83
59391;BME280;53405;57.012;40.984;2022-08-05T08:45:39;100849.31;;;29.78;42.55
59391;BME280;53405;57.012;40.984;2022-08-05T08:48:29;100826.50;;;29.55;43.73
59391;BME280;53405;57.012;40.984;2022-08-05T08:51:18;100835.81;;;29.44;42.40
59391;BME280;53405;57.012;40.984;2022-08-05T08:54:07;100848.44;;;29.24;43.67
59391;BME280;53405;57.012;40.984;2022-08-05T08:56:55;100850.38;;;29.13;43.69
59391;BME280;53405;57.012;40.984;2022-08-05T08:59:43;100851.50;;;29.07;44.25
59391;BME280;53405;57.012;40.984;2022-08-05T09:02:30;100851.09;;;28.84;43.91
59391;BME280;53405;57.012;40.984;2022-08-05T09:05:20;100823.88;;;28.60;44.54
59391;BME280;53405;57.012;40.984;2022-08-05T09:08:07;100839.81;;;28.67;45.44
59391;BME280;53405;57.012;40.984;2022-08-05T09:10:55;100840.03;;;28.76;45.53
59391;BME280;53405;57.012;40.984;2022-08-05T09:13:43;100836.75;;;28.79;45.33
59391;BME280;53405;57.012;40.984;2022-08-05T09:16:32;100842.94;;;28.90;45.15
59391;BME280;53405;57.012;40.984;2022-08-05T09:19:20;100836.97;;;28.93;44.43
59391;BME280;53405;57.012;40.984;2022-08-05T09:22:08;100841.78;;;29.06;43.79
59391;BME280;53405;57.012;40.984;2022-08-05T09:24:35;100836.09;;;29.02;44.08
59391;BME280;53405;57.012;40.984;2022-08-05T09:27:07;100820.97;;;28.91;43.99
59391;BME280;53405;57.012;40.984;2022-08-05T09:29:38;100815.97;;;29.09;44.00
59391;BME280;53405;57.012;40.984;2022-08-05T09:32:08;100840.50;;;29.67;42.60
59391;BME280;53405;57.012;40.984;2022-08-05T09:34:53;100825.25;;;29.71;43.06
59391;BME280;53405;57.012;40.984;2022-08-05T09:37:25;100826.22;;;29.57;43.37
59391;BME280;53405;57.012;40.984;2022-08-05T09:39:53;100830.00;;;29.55;43.06
59391;BME280;53405;57.012;40.984;2022-08-05T09:42:21;100840.38;;;29.78;42.42
59391;BME280;53405;57.012;40.984;2022-08-05T09:44:52;100834.00;;;29.63;42.45
59391;BME280;53405;57.012;40.984;2022-08-05T09:47:25;100831.94;;;29.50;43.93
59391;BME280;53405;57.012;40.984;2022-08-05T09:49:56;100831.31;;;29.29;43.73
59391;BME280;53405;57.012;40.984;2022-08-05T09:52:34;100831.69;;;29.12;43.52
59391;BME280;53405;57.012;40.984;2022-08-05T09:55:09;100835.03;;;28.98;44.25
59391;BME280;53405;57.012;40.984;2022-08-05T09:57:40;100832.06;;;29.00;44.38
59391;BME280;53405;57.012;40.984;2022-08-05T10:00:27;100821.19;;;29.40;42.84
59391;BME280;53405;57.012;40.984;2022-08-05T10:03:13;100818.94;;;29.47;42.37
59391;BME280;53405;57.012;40.984;2022-08-05T10:05:40;100820.25;;;29.54;42.96
59391;BME280;53405;57.012;40.984;2022-08-05T10:08:27;100816.75;;;29.78;42.17
59391;BME280;53405;57.012;40.984;2022-08-05T10:11:14;100814.34;;;29.77;42.35
59391;BME280;53405;57.012;40.984;2022-08-05T10:14:27;100813.38;;;29.67;41.02
59391;BME280;53405;57.012;40.984;2022-08-05T10:17:17;100811.25;;;30.13;40.55
59391;BME280;53405;57.012;40.984;2022-08-05T10:20:04;100811.69;;;31.86;38.19
59391;BME280;53405;57.012;40.984;2022-08-05T10:22:51;100799.59;;;33.07;34.26
59391;BME280;53405;57.012;40.984;2022-08-05T10:25:37;100808.69;;;33.79;33.75
59391;BME280;53405;57.012;40.984;2022-08-05T10:28:24;100811.78;;;34.35;31.20
59391;BME280;53405;57.012;40.984;2022-08-05T10:31:12;100817.97;;;34.76;31.56
59391;BME280;53405;57.012;40.984;2022-08-05T10:33:58;100808.56;;;34.42;31.08
59391;BME280;53405;57.012;40.984;2022-08-05T10:36:45;100815.53;;;34.56;31.72
59391;BME280;53405;57.012;40.984;2022-08-05T10:39:34;100811.53;;;34.98;30.79
59391;BME280;53405;57.012;40.984;2022-08-05T10:42:24;100804.72;;;35.30;30.39
59391;BME280;53405;57.012;40.984;2022-08-05T10:45:12;100802.09;;;35.51;30.11
59391;BME280;53405;57.012;40.984;2022-08-05T10:51:20;100793.75;;;35.39;29.34
59391;BME280;53405;57.012;40.984;2022-08-05T10:54:07;100784.28;;;35.75;29.97
59391;BME280;53405;57.012;40.984;2022-08-05T10:56:53;100789.91;;;36.38;28.44
59391;BME280;53405;57.012;40.984;2022-08-05T10:59:42;100794.16;;;36.69;27.65
59391;BME280;53405;57.012;40.984;2022-08-05T11:02:28;100789.97;;;36.71;27.73
59391;BME280;53405;57.012;40.984;2022-08-05T11:05:14;100803.03;;;36.53;28.11
59391;BME280;53405;57.012;40.984;2022-08-05T11:08:02;100788.94;;;36.97;28.48
59391;BME280;53405;57.012;40.984;2022-08-05T11:10:53;100780.03;;;37.21;27.54
59391;BME280;53405;57.012;40.984;2022-08-05T11:13:41;100792.44;;;37.19;26.15
59391;BME280;53405;57.012;40.984;2022-08-05T11:16:28;100788.38;;;37.25;26.83
59391;BME280;53405;57.012;40.984;2022-08-05T11:21:42;100782.38;;;36.35;27.16
59391;BME280;53405;57.012;40.984;2022-08-05T11:24:09;100790.22;;;35.86;28.33
59391;BME280;53405;57.012;40.984;2022-08-05T11:27:30;100779.38;;;34.77;30.06
59391;BME280;53405;57.012;40.984;2022-08-05T11:30:06;100779.06;;;34.03;31.00
59391;BME280;53405;57.012;40.984;2022-08-05T11:36:18;100770.28;;;35.76;27.88
59391;BME280;53405;57.012;40.984;2022-08-05T11:39:08;100779.53;;;35.54;28.41
59391;BME280;53405;57.012;40.984;2022-08-05T11:41:51;100770.34;;;34.50;29.66
59391;BME280;53405;57.012;40.984;2022-08-05T11:44:20;100768.16;;;33.09;31.60
59391;BME280;53405;57.012;40.984;2022-08-05T11:46:51;100751.28;;;31.84;33.95
59391;BME280;53405;57.012;40.984;2022-08-05T11:49:21;100766.03;;;31.36;34.81
59391;BME280;53405;57.012;40.984;2022-08-05T11:52:08;100776.69;;;31.65;35.37
59391;BME280;53405;57.012;40.984;2022-08-05T11:54:56;100764.41;;;32.23;34.58
59391;BME280;53405;57.012;40.984;2022-08-05T11:57:28;100767.44;;;32.58;34.28
59391;BME280;53405;57.012;40.984;2022-08-05T11:59:56;100755.59;;;32.77;33.89
59391;BME280;53405;57.012;40.984;2022-08-05T12:02:37;100766.00;;;33.20;33.10
59391;BME280;53405;57.012;40.984;2022-08-05T12:05:27;100762.06;;;33.12;33.23
59391;BME280;53405;57.012;40.984;2022-08-05T12:08:13;100759.22;;;32.95;33.50
59391;BME280;53405;57.012;40.984;2022-08-05T12:11:02;100764.69;;;32.72;33.93
59391;BME280;53405;57.012;40.984;2022-08-05T12:13:58;100759.84;;;32.69;33.93
59391;BME280;53405;57.012;40.984;2022-08-05T12:16:45;100758.16;;;32.23;34.90
59391;BME280;53405;57.012;40.984;2022-08-05T12:19:45;100738.22;;;31.39;36.30
59391;BME280;53405;57.012;40.984;2022-08-05T12:22:31;100738.41;;;30.96;37.20
59391;BME280;53405;57.012;40.984;2022-08-05T12:25:02;100734.94;;;30.57;37.58
59391;BME280;53405;57.012;40.984;2022-08-05T12:27:38;100751.44;;;30.42;37.76
59391;BME280;53405;57.012;40.984;2022-08-05T12:30:48;100752.06;;;30.15;38.83
59391;BME280;53405;57.012;40.984;2022-08-05T12:33:16;100753.81;;;30.05;39.07
59391;BME280;53405;57.012;40.984;2022-08-05T12:35:43;100750.94;;;30.16;39.44
59391;BME280;53405;57.012;40.984;2022-08-05T12:38:13;100741.41;;;30.18;38.82
59391;BME280;53405;57.012;40.984;2022-08-05T12:40:49;100746.69;;;30.09;38.60
59391;BME280;53405;57.012;40.984;2022-08-05T12:44:13;100749.94;;;30.12;40.51
59391;BME280;53405;57.012;40.984;2022-08-05T12:46:42;100742.44;;;30.22;38.75
59391;BME280;53405;57.012;40.984;2022-08-05T12:49:44;100744.16;;;30.37;39.06
59391;BME280;53405;57.012;40.984;2022-08-05T12:52:14;100742.47;;;30.41;38.38
59391;BME280;53405;57.012;40.984;2022-08-05T12:54:43;100717.69;;;30.24;38.73
59391;BME280;53405;57.012;40.984;2022-08-05T12:57:11;100741.81;;;30.31;39.73
59391;BME280;53405;57.012;40.984;2022-08-05T13:02:30;100722.91;;;30.20;40.19
59391;BME280;53405;57.012;40.984;2022-08-05T13:05:16;100744.44;;;30.36;39.22
59391;BME280;53405;57.012;40.984;2022-08-05T13:08:03;100734.84;;;30.43;39.20
59391;BME280;53405;57.012;40.984;2022-08-05T13:10:41;100734.28;;;30.47;39.30
59391;BME280;53405;57.012;40.984;2022-08-05T13:13:09;100730.16;;;30.49;38.96
59391;BME280;53405;57.012;40.984;2022-08-05T13:15:55;100732.22;;;30.57;38.92
59391;BME280;53405;57.012;40.984;2022-08-05T13:18:55;100738.44;;;30.58;39.80
59391;BME280;53405;57.012;40.984;2022-08-05T13:21:41;100727.97;;;30.51;40.09
59391;BME280;53405;57.012;40.984;2022-08-05T13:24:12;100731.31;;;30.43;41.02
59391;BME280;53405;57.012;40.984;2022-08-05T13:26:41;100731.09;;;30.39;40.44
59391;BME280;53405;57.012;40.984;2022-08-05T13:29:08;100734.84;;;30.43;41.46
59391;BME280;53405;57.012;40.984;2022-08-05T13:31:35;100733.75;;;30.44;40.25
59391;BME280;53405;57.012;40.984;2022-08-05T13:34:03;100734.03;;;30.43;40.13
59391;BME280;53405;57.012;40.984;2022-08-05T13:36:31;100698.25;;;30.17;39.51
59391;BME280;53405;57.012;40.984;2022-08-05T13:39:19;100725.81;;;30.29;40.78
59391;BME280;53405;57.012;40.984;2022-08-05T13:41:46;100724.00;;;30.19;40.97
59391;BME280;53405;57.012;40.984;2022-08-05T13:44:14;100718.94;;;30.13;40.90
59391;BME280;53405;57.012;40.984;2022-08-05T13:46:42;100728.22;;;30.12;39.74
59391;BME280;53405;57.012;40.984;2022-08-05T13:49:25;100722.25;;;30.09;39.81
59391;BME280;53405;57.012;40.984;2022-08-05T13:51:53;100716.88;;;30.04;40.29
59391;BME280;53405;57.012;40.984;2022-08-05T13:54:21;100726.41;;;30.02;40.74
59391;BME280;53405;57.012;40.984;2022-08-05T13:57:07;100722.97;;;29.96;40.89
59391;BME280;53405;57.012;40.984;2022-08-05T13:59:35;100725.00;;;29.85;40.69
59391;BME280;53405;57.012;40.984;2022-08-05T14:02:04;100723.69;;;29.78;39.36
59391;BME280;53405;57.012;40.984;2022-08-05T14:04:50;100722.41;;;29.70;41.28
59391;BME280;53405;57.012;40.984;2022-08-05T14:07:43;100719.47;;;29.66;40.63
59391;BME280;53405;57.012;40.984;2022-08-05T14:10:30;100724.69;;;29.63;41.37
59391;BME280;53405;57.012;40.984;2022-08-05T14:13:15;100715.72;;;29.62;41.06
59391;BME280;53405;57.012;40.984;2022-08-05T14:16:01;100715.44;;;29.64;40.65
59391;BME280;53405;57.012;40.984;2022-08-05T14:18:47;100711.06;;;29.68;40.91
59391;BME280;53405;57.012;40.984;2022-08-05T14:21:32;100700.78;;;29.65;40.59
59391;BME280;53405;57.012;40.984;2022-08-05T14:24:23;100716.25;;;29.64;40.71